Time;durP1;ratioP1;P1;durP2;ratioP2;P2;SDS_P1;SDS_P2;PMS_P1;PMS_P2;Temp;Humidity;BMP_temperature;BMP_pressure;BME280_temperature;BME280_humidity;BME280_pressure;Samples;Min_cycle;Max_cycle;Signal;HPM_P1;HPM_P2
2023/06/11 00:00:11;;;;;;;26.85;13.00;;;22.30;99.90;;;;;;5090740;28;20063;-75
2023/06/11 00:03:21;;;;;;;27.65;13.90;;;22.30;99.90;;;;;;5078205;28;20039;-75
2023/06/11 00:06:25;;;;;;;24.92;13.50;;;22.30;99.90;;;;;;5091212;28;20502;-75
2023/06/11 00:09:29;;;;;;;46.65;30.52;;;22.30;99.90;;;;;;5091048;28;20070;-75
2023/06/11 00:12:34;;;;;;;29.92;16.73;;;22.30;99.90;;;;;;5090720;28;20056;-75
2023/06/11 00:15:38;;;;;;;22.05;15.15;;;22.20;99.90;;;;;;5078278;28;20047;-75
2023/06/11 00:18:42;;;;;;;26.20;16.15;;;22.20;99.90;;;;;;5090713;28;20055;-75
2023/06/11 00:21:48;;;;;;;30.88;16.92;;;22.20;99.90;;;;;;5090810;28;20039;-75
2023/06/11 00:24:53;;;;;;;28.52;15.88;;;22.10;99.90;;;;;;5090783;28;20059;-75
2023/06/11 00:27:57;;;;;;;26.23;15.88;;;22.10;99.90;;;;;;5090655;28;20043;-75
2023/06/11 00:31:03;;;;;;;25.67;15.18;;;22.10;99.90;;;;;;5090809;28;20039;-75
2023/06/11 00:34:07;;;;;;;26.08;16.42;;;22.10;99.90;;;;;;5090575;28;20043;-75
2023/06/11 00:37:11;;;;;;;27.95;15.95;;;22.10;99.90;;;;;;5077937;28;20067;-75
2023/06/11 00:40:16;;;;;;;31.48;16.27;;;22.10;99.90;;;;;;5078333;28;20523;-75
2023/06/11 00:43:23;;;;;;;27.50;15.77;;;22.10;99.90;;;;;;5078103;28;20506;-75
2023/06/11 00:46:27;;;;;;;26.15;14.60;;;22.00;99.90;;;;;;5078374;28;20044;-75
2023/06/11 00:49:32;;;;;;;25.60;16.00;;;21.90;99.90;;;;;;5090781;28;20036;-75
2023/06/11 00:52:36;;;;;;;28.95;15.75;;;21.80;99.90;;;;;;5090246;28;20051;-75
2023/06/11 00:55:40;;;;;;;28.45;17.02;;;21.90;99.90;;;;;;5090556;28;20051;-75
2023/06/11 00:58:45;;;;;;;30.50;18.10;;;21.90;99.90;;;;;;5091360;28;20063;-75
2023/06/11 01:01:58;;;;;;;33.55;18.27;;;21.80;99.90;;;;;;5093927;28;20397;-75
2023/06/11 01:05:04;;;;;;;34.15;19.40;;;21.80;99.90;;;;;;5093877;28;20043;-75
2023/06/11 01:08:13;;;;;;;37.78;19.50;;;21.80;99.90;;;;;;5081455;28;20055;-75
2023/06/11 01:11:23;;;;;;;30.83;20.13;;;21.70;99.90;;;;;;5093474;28;20059;-75
2023/06/11 01:14:32;;;;;;;28.95;19.30;;;21.70;99.90;;;;;;5092818;28;20051;-74
2023/06/11 01:17:52;;;;;;;26.73;19.33;;;21.70;99.90;;;;;;5081627;28;20047;-75
2023/06/11 01:21:04;;;;;;;28.60;18.35;;;21.80;99.90;;;;;;5081214;28;20047;-74
2023/06/11 01:24:14;;;;;;;29.20;18.85;;;21.80;99.90;;;;;;5081365;28;20380;-75
2023/06/11 01:27:17;;;;;;;28.65;18.33;;;21.80;99.90;;;;;;5081491;28;20388;-75
2023/06/11 01:30:23;;;;;;;31.75;18.25;;;21.90;99.90;;;;;;5081364;28;20055;-75
2023/06/11 01:33:28;;;;;;;25.83;16.05;;;21.80;99.90;;;;;;5081243;28;20051;-75
2023/06/11 01:36:36;;;;;;;26.92;17.52;;;21.80;99.90;;;;;;5080870;28;20043;-75
2023/06/11 01:39:45;;;;;;;25.05;17.10;;;21.80;99.90;;;;;;5093506;28;20074;-75
2023/06/11 01:43:10;;;;;;;29.52;16.27;;;21.80;99.90;;;;;;5080915;28;20043;-75
2023/06/11 01:46:15;;;;;;;27.58;16.33;;;21.80;99.90;;;;;;5080641;28;20042;-75
2023/06/11 01:49:19;;;;;;;38.28;23.85;;;21.80;99.90;;;;;;5081171;28;20146;-75
2023/06/11 01:52:24;;;;;;;60.92;36.17;;;21.80;99.90;;;;;;5092678;28;20523;-75
2023/06/11 01:55:28;;;;;;;68.75;36.47;;;21.70;99.90;;;;;;5092870;28;20412;-75
2023/06/11 01:58:32;;;;;;;37.78;20.73;;;21.60;99.90;;;;;;5080574;28;20407;-75
2023/06/11 02:01:36;;;;;;;25.15;15.65;;;21.60;99.90;;;;;;5080434;28;20038;-74
2023/06/11 02:04:40;;;;;;;24.50;13.93;;;21.60;99.90;;;;;;5080470;28;20514;-75
2023/06/11 02:07:45;;;;;;;24.92;12.32;;;21.60;99.90;;;;;;5069078;28;20047;-74
2023/06/11 02:10:49;;;;;;;17.67;11.18;;;21.60;99.90;;;;;;5092742;28;20047;-75
2023/06/11 02:13:53;;;;;;;21.58;12.52;;;21.60;99.90;;;;;;5080469;28;20051;-73
2023/06/11 02:16:57;;;;;;;22.13;13.02;;;21.70;99.90;;;;;;5069073;28;20051;-75
2023/06/11 02:20:05;;;;;;;29.23;13.38;;;21.70;99.90;;;;;;5069117;28;20059;-75
2023/06/11 02:23:09;;;;;;;22.50;11.65;;;21.60;99.90;;;;;;5080285;28;20499;-75
2023/06/11 02:26:13;;;;;;;18.92;12.23;;;21.60;99.90;;;;;;5092018;28;20051;-75
2023/06/11 02:29:17;;;;;;;21.70;12.95;;;21.60;99.90;;;;;;5080058;28;20047;-75
2023/06/11 02:32:21;;;;;;;19.92;12.10;;;21.60;99.90;;;;;;5080200;28;20039;-75
2023/06/11 02:35:25;;;;;;;20.73;11.35;;;21.60;99.90;;;;;;5080099;28;20388;-75
2023/06/11 02:38:30;;;;;;;22.90;11.60;;;21.60;99.90;;;;;;5079725;28;20059;-75
2023/06/11 02:41:34;;;;;;;23.33;10.82;;;21.60;99.90;;;;;;5092604;28;20067;-74
2023/06/11 02:44:39;;;;;;;19.75;10.85;;;21.50;99.90;;;;;;5092440;28;20039;-74
2023/06/11 02:47:42;;;;;;;20.05;10.48;;;21.50;99.90;;;;;;5092256;28;20067;-75
2023/06/11 02:50:46;;;;;;;18.02;9.82;;;21.40;99.90;;;;;;5092330;28;20039;-74
2023/06/11 02:53:50;;;;;;;17.55;9.88;;;21.40;99.90;;;;;;5092335;28;20399;-74
2023/06/11 02:56:54;;;;;;;13.45;9.90;;;21.30;99.90;;;;;;5067764;28;20043;-74
2023/06/11 02:59:58;;;;;;;14.27;9.48;;;21.20;99.90;;;;;;5091868;28;20234;-74
2023/06/11 03:03:02;;;;;;;15.27;9.07;;;21.20;99.90;;;;;;5068071;28;20047;-75
2023/06/11 03:06:12;;;;;;;15.32;9.20;;;21.20;99.90;;;;;;5079476;28;20403;-74
2023/06/11 03:09:17;;;;;;;18.70;8.60;;;21.20;99.90;;;;;;5067929;28;20063;-74
2023/06/11 03:12:21;;;;;;;13.55;8.75;;;21.30;99.90;;;;;;5079735;28;20395;-75
2023/06/11 03:15:25;;;;;;;19.08;9.93;;;21.30;99.90;;;;;;5079210;28;20047;-75
2023/06/11 03:18:28;;;;;;;20.20;10.02;;;21.30;99.90;;;;;;5079312;28;20051;-75
2023/06/11 03:21:32;;;;;;;17.48;10.25;;;21.30;99.90;;;;;;5078490;28;20499;-76
2023/06/11 03:24:37;;;;;;;15.88;10.10;;;21.30;99.90;;;;;;5067766;28;20059;-75
2023/06/11 03:27:51;;;;;;;30.08;11.25;;;21.30;99.90;;;;;;5078944;28;20039;-75
2023/06/11 03:30:55;;;;;;;17.75;11.80;;;21.30;99.90;;;;;;5090886;28;20399;-75
2023/06/11 03:34:00;;;;;;;16.02;11.30;;;21.20;99.90;;;;;;5091427;28;20047;-74
2023/06/11 03:37:05;;;;;;;15.52;11.10;;;21.20;99.90;;;;;;5091550;28;20051;-76
2023/06/11 03:40:10;;;;;;;19.48;9.82;;;21.10;99.90;;;;;;5078678;28;20106;-76
2023/06/11 03:43:14;;;;;;;20.20;9.15;;;21.10;99.90;;;;;;5091338;28;20404;-76
2023/06/11 03:46:21;;;;;;;17.17;9.13;;;21.00;99.90;;;;;;5078800;28;20039;-75
2023/06/11 03:49:25;;;;;;;17.63;9.57;;;20.90;99.90;;;;;;5078426;28;20039;-75
2023/06/11 03:52:29;;;;;;;22.50;9.57;;;20.90;99.90;;;;;;5078325;28;20047;-76
2023/06/11 03:55:33;;;;;;;16.95;9.73;;;21.00;99.90;;;;;;5091175;28;20518;-75
2023/06/11 03:58:37;;;;;;;18.15;10.00;;;21.00;99.90;;;;;;5090986;28;20047;-76
2023/06/11 04:01:41;;;;;;;16.27;9.85;;;20.90;99.90;;;;;;5078793;28;20502;-75
2023/06/11 04:04:45;;;;;;;19.65;9.82;;;20.90;99.90;;;;;;5078352;28;20035;-75
2023/06/11 04:07:49;;;;;;;21.88;10.57;;;20.90;99.90;;;;;;5078353;28;20503;-76
2023/06/11 04:10:53;;;;;;;24.95;9.73;;;21.10;99.90;;;;;;5078625;28;20051;-76
2023/06/11 04:13:57;;;;;;;21.38;10.10;;;21.10;99.90;;;;;;5078349;28;20043;-75
2023/06/11 04:17:01;;;;;;;18.67;10.02;;;21.20;99.90;;;;;;5078425;28;20043;-76
2023/06/11 04:20:07;;;;;;;18.27;10.10;;;21.10;99.90;;;;;;5078170;28;20074;-75
2023/06/11 04:23:11;;;;;;;19.67;9.30;;;21.20;99.90;;;;;;5078291;28;20384;-74
2023/06/11 04:26:16;;;;;;;17.25;10.02;;;21.30;99.90;;;;;;5078141;28;20043;-76
2023/06/11 04:29:22;;;;;;;16.63;9.80;;;21.40;99.90;;;;;;5078147;28;20519;-75
2023/06/11 04:32:34;;;;;;;20.75;11.05;;;21.50;99.90;;;;;;5066636;28;20067;-75
2023/06/11 04:35:39;;;;;;;21.15;10.30;;;21.50;99.90;;;;;;5070880;28;20062;-75
2023/06/11 04:38:44;;;;;;;14.85;9.98;;;21.60;99.90;;;;;;5082077;28;20439;-75
2023/06/11 04:41:51;;;;;;;17.90;10.48;;;21.80;99.90;;;;;;5082150;28;20039;-75
2023/06/11 04:44:56;;;;;;;22.35;10.48;;;22.00;99.90;;;;;;5081790;28;20051;-75
2023/06/11 04:48:03;;;;;;;21.95;10.50;;;22.10;99.90;;;;;;5082092;28;20388;-75
2023/06/11 04:51:11;;;;;;;15.75;10.25;;;21.90;99.90;;;;;;5081744;28;20051;-75
2023/06/11 04:54:21;;;;;;;16.58;10.25;;;21.90;99.90;;;;;;5081660;28;20495;-75
2023/06/11 04:57:25;;;;;;;21.58;10.70;;;22.10;99.90;;;;;;5082044;28;20043;-75
2023/06/11 05:00:30;;;;;;;22.70;11.65;;;22.30;99.90;;;;;;5081884;28;20609;-75
2023/06/11 05:03:37;;;;;;;21.35;11.48;;;22.40;99.90;;;;;;5081873;28;20132;-75
2023/06/11 05:06:44;;;;;;;18.90;10.50;;;22.40;99.90;;;;;;5093713;28;20043;-75
2023/06/11 05:09:51;;;;;;;19.23;11.70;;;22.70;99.90;;;;;;5081546;28;20055;-74
2023/06/11 05:12:55;;;;;;;17.42;10.13;;;23.00;99.90;;;;;;5081451;28;20043;-74
2023/06/11 05:16:00;;;;;;;19.25;11.68;;;23.20;99.90;;;;;;5093920;28;20039;-75
2023/06/11 05:19:05;;;;;;;23.17;11.45;;;23.30;99.90;;;;;;5070136;28;20047;-76
2023/06/11 05:22:09;;;;;;;21.15;10.50;;;23.40;99.90;;;;;;5081211;28;20581;-75
2023/06/11 05:25:19;;;;;;;22.17;11.23;;;23.50;99.90;;;;;;5081425;28;20051;-75
2023/06/11 05:28:26;;;;;;;15.90;10.88;;;23.60;99.90;;;;;;5069665;28;20051;-76
2023/06/11 05:31:31;;;;;;;24.02;10.70;;;23.90;99.90;;;;;;5081378;28;20051;-77
2023/06/11 05:34:37;;;;;;;21.20;11.85;;;24.20;99.90;;;;;;5081285;28;20051;-75
2023/06/11 05:37:45;;;;;;;22.33;12.18;;;24.10;99.90;;;;;;5070395;28;20051;-76
2023/06/11 05:40:49;;;;;;;21.88;11.02;;;24.10;99.90;;;;;;5081508;28;20431;-76
2023/06/11 05:43:53;;;;;;;21.85;11.18;;;24.10;99.90;;;;;;5093652;28;20491;-75
2023/06/11 05:46:58;;;;;;;20.20;10.20;;;24.30;99.90;;;;;;5080930;28;20051;-74
2023/06/11 05:50:03;;;;;;;20.90;11.35;;;24.50;99.90;;;;;;5093320;28;20036;-75
2023/06/11 05:53:10;;;;;;;20.98;10.45;;;24.40;99.90;;;;;;5081097;28;20051;-75
2023/06/11 05:56:17;;;;;;;19.10;9.85;;;24.30;99.90;;;;;;5080768;28;20043;-76
2023/06/11 05:59:21;;;;;;;17.35;11.25;;;24.40;99.90;;;;;;5080474;28;20047;-76
2023/06/11 06:02:26;;;;;;;22.27;10.43;;;24.30;99.90;;;;;;5080703;28;20396;-75
2023/06/11 06:05:30;;;;;;;19.58;10.90;;;24.50;99.90;;;;;;5080656;28;20047;-75
2023/06/11 06:08:34;;;;;;;15.40;9.95;;;24.40;99.70;;;;;;5080068;28;20055;-76
2023/06/11 06:11:38;;;;;;;18.40;9.50;;;24.20;99.90;;;;;;5080806;28;20047;-75
2023/06/11 06:14:43;;;;;;;21.88;10.05;;;24.00;99.90;;;;;;5080261;28;20415;-76
2023/06/11 06:17:47;;;;;;;22.83;11.63;;;24.00;99.90;;;;;;5092845;28;20051;-76
2023/06/11 06:20:57;;;;;;;28.23;10.60;;;24.30;99.90;;;;;;5069490;28;20048;-76
2023/06/11 06:24:01;;;;;;;21.33;8.88;;;24.50;99.90;;;;;;5092488;28;20047;-76
2023/06/11 06:27:06;;;;;;;26.25;10.40;;;24.50;99.40;;;;;;5080300;28;20044;-76
2023/06/11 06:30:13;;;;;;;19.52;10.40;;;24.50;99.90;;;;;;5080107;28;20051;-76
2023/06/11 06:33:17;;;;;;;18.35;9.00;;;24.50;99.60;;;;;;5080191;28;20051;-75
2023/06/11 06:36:21;;;;;;;18.50;8.85;;;24.50;99.60;;;;;;5079696;28;20047;-75
2023/06/11 06:39:26;;;;;;;23.33;9.05;;;24.70;99.50;;;;;;5079658;28;20301;-75
2023/06/11 06:42:30;;;;;;;22.40;8.38;;;25.10;98.80;;;;;;5079740;28;20055;-76
2023/06/11 06:45:38;;;;;;;19.10;10.13;;;25.40;98.60;;;;;;5079489;28;20051;-77
2023/06/11 06:48:51;;;;;;;16.17;7.63;;;25.70;98.00;;;;;;5069196;28;20400;-76
2023/06/11 06:51:55;;;;;;;21.08;8.25;;;25.90;98.10;;;;;;5068472;28;20039;-75
2023/06/11 06:55:00;;;;;;;19.50;8.05;;;26.20;96.90;;;;;;5079513;28;20047;-76
2023/06/11 06:58:05;;;;;;;18.58;6.53;;;26.30;96.40;;;;;;5079019;28;20051;-76
2023/06/11 07:01:09;;;;;;;20.92;6.85;;;26.40;96.50;;;;;;5079799;28;20054;-75
2023/06/11 07:04:13;;;;;;;11.70;6.28;;;26.70;96.30;;;;;;5091614;28;20039;-76
2023/06/11 07:07:17;;;;;;;17.70;7.32;;;26.70;96.20;;;;;;5091506;28;20053;-76
2023/06/11 07:10:21;;;;;;;22.40;7.15;;;27.30;95.70;;;;;;5079487;28;20046;-76
2023/06/11 07:13:27;;;;;;;16.92;7.18;;;27.50;94.70;;;;;;5078901;28;20051;-76
2023/06/11 07:16:35;;;;;;;18.50;7.90;;;27.20;95.40;;;;;;5079166;28;20110;-76
2023/06/11 07:19:41;;;;;;;12.00;6.20;;;27.10;95.60;;;;;;5079119;28;20043;-75
2023/06/11 07:22:44;;;;;;;17.65;6.25;;;26.80;96.00;;;;;;5067725;28;20094;-76
2023/06/11 07:25:50;;;;;;;11.98;5.55;;;26.50;95.80;;;;;;5079029;28;20058;-76
2023/06/11 07:28:55;;;;;;;20.55;6.28;;;26.20;95.90;;;;;;5079059;28;20055;-77
2023/06/11 07:32:00;;;;;;;9.93;5.97;;;26.00;96.20;;;;;;5067806;28;20042;-76
2023/06/11 07:35:05;;;;;;;14.50;6.50;;;25.90;96.50;;;;;;5078521;28;20043;-77
2023/06/11 07:38:09;;;;;;;13.45;5.85;;;25.70;96.70;;;;;;5078985;28;20043;-76
2023/06/11 07:41:13;;;;;;;17.02;6.20;;;25.70;96.80;;;;;;5078804;28;20054;-76
2023/06/11 07:44:17;;;;;;;14.30;6.03;;;25.60;96.60;;;;;;5078635;28;20079;-75
2023/06/11 07:47:21;;;;;;;16.30;6.03;;;25.50;96.90;;;;;;5078444;28;20230;-77
2023/06/11 07:50:25;;;;;;;13.23;6.25;;;25.40;97.10;;;;;;5078657;28;20039;-75
2023/06/11 07:53:29;;;;;;;18.60;6.68;;;25.50;97.00;;;;;;5091419;28;20384;-76
2023/06/11 07:56:33;;;;;;;19.50;6.38;;;25.40;97.30;;;;;;5090856;28;20051;-75
2023/06/11 07:59:38;;;;;;;17.05;6.63;;;25.30;97.80;;;;;;5091074;28;20055;-76
2023/06/11 08:02:43;;;;;;;13.55;7.80;;;25.10;98.00;;;;;;5078566;28;20039;-75
2023/06/11 08:05:47;;;;;;;19.02;8.20;;;25.10;98.00;;;;;;5090755;28;20047;-76
2023/06/11 08:08:52;;;;;;;21.00;7.63;;;24.90;98.50;;;;;;5090524;28;20044;-76
2023/06/11 08:11:55;;;;;;;15.25;7.88;;;24.80;98.80;;;;;;5078197;28;20043;-76
2023/06/11 08:14:59;;;;;;;16.25;7.63;;;24.80;99.10;;;;;;5090963;28;20067;-75
2023/06/11 08:18:03;;;;;;;15.63;8.05;;;24.80;99.30;;;;;;5091134;28;20059;-76
2023/06/11 08:21:07;;;;;;;18.67;7.78;;;24.80;99.10;;;;;;5090915;28;20063;-76
2023/06/11 08:24:11;;;;;;;16.65;7.95;;;25.20;99.10;;;;;;5090742;28;20106;-77
2023/06/11 08:27:15;;;;;;;16.00;7.55;;;25.60;98.90;;;;;;5090906;28;20404;-76
2023/06/11 08:30:19;;;;;;;18.88;7.03;;;26.40;97.80;;;;;;5078428;28;20051;-75
2023/06/11 08:33:23;;;;;;;18.83;7.15;;;27.10;96.40;;;;;;5078374;28;20047;-76
2023/06/11 08:36:27;;;;;;;16.67;7.82;;;27.70;95.50;;;;;;5090705;28;20106;-77
2023/06/11 08:39:31;;;;;;;16.25;7.03;;;28.10;95.00;;;;;;5090584;28;20046;-78
2023/06/11 08:42:35;;;;;;;19.60;7.38;;;28.40;94.40;;;;;;5090609;28;20059;-76
2023/06/11 08:45:39;;;;;;;16.88;6.75;;;28.30;93.90;;;;;;5090622;28;20039;-77
2023/06/11 08:48:44;;;;;;;19.95;7.30;;;28.10;94.40;;;;;;5078075;28;20043;-77
2023/06/11 08:51:49;;;;;;;17.15;6.95;;;27.80;94.60;;;;;;5090694;28;20039;-76
2023/06/11 08:54:53;;;;;;;17.20;6.55;;;27.40;94.70;;;;;;5090325;28;20043;-76
2023/06/11 08:57:57;;;;;;;17.27;7.25;;;27.10;95.10;;;;;;5090485;28;20141;-76
2023/06/11 09:01:11;;;;;;;20.83;7.22;;;26.90;95.30;;;;;;5090201;28;20055;-76
2023/06/11 09:04:16;;;;;;;12.48;6.55;;;26.60;95.00;;;;;;5090351;28;20035;-75
2023/06/11 09:07:24;;;;;;;19.10;7.65;;;26.50;95.10;;;;;;5090341;28;20070;-76
2023/06/11 09:10:28;;;;;;;20.27;7.00;;;26.40;95.50;;;;;;5090437;28;20503;-76
2023/06/11 09:13:32;;;;;;;18.05;7.45;;;26.30;95.90;;;;;;5090384;28;20321;-76
2023/06/11 09:16:46;;;;;;;21.45;8.13;;;26.20;96.60;;;;;;5090588;28;20044;-76
2023/06/11 09:19:55;;;;;;;17.27;7.30;;;26.00;97.70;;;;;;5091637;28;20403;-74
2023/06/11 09:22:58;;;;;;;18.67;7.30;;;25.80;98.00;;;;;;5094293;28;20486;-75
2023/06/11 09:26:03;;;;;;;23.20;7.25;;;25.70;98.10;;;;;;5093658;28;20043;-76
2023/06/11 09:29:07;;;;;;;12.02;5.70;;;25.70;98.20;;;;;;5093672;28;20518;-76
2023/06/11 09:32:12;;;;;;;20.50;5.60;;;25.60;97.70;;;;;;5081499;28;20047;-75
2023/06/11 09:35:15;;;;;;;18.75;5.60;;;25.70;97.10;;;;;;5093905;28;20043;-75
2023/06/11 09:38:21;;;;;;;13.82;4.88;;;25.70;96.60;;;;;;5093446;28;20039;-77
2023/06/11 09:41:26;;;;;;;19.48;4.68;;;25.60;96.10;;;;;;5093595;28;20047;-75
2023/06/11 09:44:34;;;;;;;11.07;4.35;;;25.40;96.30;;;;;;5093150;28;20043;-78
2023/06/11 09:47:39;;;;;;;9.90;4.22;;;25.20;96.30;;;;;;5093450;28;20039;-75
2023/06/11 09:50:43;;;;;;;9.80;4.93;;;25.00;96.70;;;;;;5093452;28;20040;-76
2023/06/11 09:53:51;;;;;;;15.73;6.55;;;24.90;98.00;;;;;;5093322;28;20050;-75
2023/06/11 09:56:55;;;;;;;11.70;5.25;;;24.90;98.80;;;;;;5069465;28;20043;-76
2023/06/11 10:00:00;;;;;;;11.80;4.65;;;24.90;98.80;;;;;;5092849;28;20035;-75
2023/06/11 10:03:04;;;;;;;12.20;5.18;;;24.90;99.10;;;;;;5093462;28;20067;-77
2023/06/11 10:06:14;;;;;;;11.25;4.95;;;25.00;98.30;;;;;;5093237;28;20047;-74
2023/06/11 10:09:19;;;;;;;15.23;4.80;;;25.00;98.10;;;;;;5093281;28;20391;-76
2023/06/11 10:12:23;;;;;;;12.05;5.07;;;25.00;98.00;;;;;;5093182;28;20495;-75
2023/06/11 10:15:31;;;;;;;10.35;4.68;;;25.00;98.30;;;;;;5093014;28;20043;-75
2023/06/11 10:18:35;;;;;;;10.02;4.80;;;25.00;97.60;;;;;;5092747;28;20047;-76
2023/06/11 10:21:51;;;;;;;13.38;4.65;;;25.00;98.00;;;;;;5092592;28;20075;-76
2023/06/11 10:25:02;;;;;;;12.07;4.38;;;25.00;97.60;;;;;;5092594;28;20043;-76
2023/06/11 10:28:07;;;;;;;10.63;4.50;;;25.00;97.70;;;;;;5092759;28;20043;-77
2023/06/11 10:31:11;;;;;;;11.38;4.45;;;25.10;98.40;;;;;;5092753;28;20491;-74
2023/06/11 10:34:15;;;;;;;13.93;5.43;;;25.30;98.10;;;;;;5092497;28;20063;-75
2023/06/11 10:37:41;;;;;;;11.23;5.03;;;25.50;98.40;;;;;;5092262;28;20063;-76
2023/06/11 10:40:47;;;;;;;10.40;4.95;;;25.60;97.90;;;;;;5092176;28;20055;-76
2023/06/11 10:43:51;;;;;;;12.95;4.43;;;25.70;97.30;;;;;;5079795;28;20047;-74
2023/06/11 10:47:00;;;;;;;10.27;4.78;;;25.90;97.00;;;;;;5079519;28;20062;-76
2023/06/11 10:50:15;;;;;;;9.57;4.10;;;26.10;96.40;;;;;;5092290;28;20039;-77
2023/06/11 10:53:19;;;;;;;11.27;4.93;;;26.30;95.60;;;;;;5092338;28;20043;-75
2023/06/11 10:56:24;;;;;;;10.93;4.70;;;26.30;95.50;;;;;;5092148;28;20047;-76
2023/06/11 10:59:30;;;;;;;14.10;5.00;;;26.20;95.90;;;;;;5079651;28;20047;-76
2023/06/11 11:02:34;;;;;;;16.35;5.85;;;26.00;96.30;;;;;;5091857;28;20043;-76
2023/06/11 11:05:41;;;;;;;19.85;7.30;;;25.90;96.60;;;;;;5091938;28;20043;-76
2023/06/11 11:08:45;;;;;;;17.45;7.32;;;25.80;98.40;;;;;;5091633;28;20066;-75
2023/06/11 11:11:52;;;;;;;17.70;7.32;;;25.60;99.00;;;;;;5091859;28;20067;-76
2023/06/11 11:14:56;;;;;;;18.45;7.45;;;25.50;99.60;;;;;;5091594;28;20392;-76
2023/06/11 11:18:02;;;;;;;23.38;8.90;;;25.30;99.90;;;;;;5091550;28;20047;-74
2023/06/11 11:21:06;;;;;;;23.38;8.63;;;25.10;99.90;;;;;;5091628;28;20078;-75
2023/06/11 11:24:12;;;;;;;16.65;8.52;;;25.00;99.90;;;;;;5091512;28;20043;-76
2023/06/11 11:27:16;;;;;;;18.35;9.10;;;24.80;99.90;;;;;;5091291;28;20310;-75
2023/06/11 11:30:20;;;;;;;18.33;9.70;;;24.70;99.90;;;;;;5091482;28;20050;-75
2023/06/11 11:33:24;;;;;;;23.13;9.10;;;24.50;99.90;;;;;;5078934;28;20042;-74
2023/06/11 11:36:28;;;;;;;18.08;7.80;;;24.40;99.90;;;;;;5091224;28;20499;-75
2023/06/11 11:39:32;;;;;;;13.68;7.20;;;24.30;99.90;;;;;;5091328;28;20412;-75
2023/06/11 11:43:05;;;;;;;12.95;6.40;;;24.20;99.90;;;;;;5090719;28;20399;-76
2023/06/11 11:46:17;;;;;;;14.40;6.45;;;24.10;99.90;;;;;;5091214;28;20055;-76
2023/06/11 11:49:21;;;;;;;11.00;5.88;;;23.90;99.90;;;;;;5091075;28;20107;-74
2023/06/11 11:52:27;;;;;;;11.20;6.22;;;23.70;99.90;;;;;;5091402;28;20043;-75
2023/06/11 11:55:34;;;;;;;10.93;5.78;;;23.50;99.90;;;;;;5090934;28;20042;-73
2023/06/11 11:58:41;;;;;;;13.02;6.15;;;23.40;99.90;;;;;;5091115;28;20043;-74
2023/06/11 12:02:00;;;;;;;10.60;6.32;;;23.30;99.90;;;;;;5078419;28;20067;-73
2023/06/11 12:05:04;;;;;;;12.63;5.35;;;23.30;99.90;;;;;;5090973;28;20043;-75
2023/06/11 12:08:09;;;;;;;11.43;5.78;;;23.40;99.90;;;;;;5090694;28;20062;-75
2023/06/11 12:11:12;;;;;;;11.85;5.68;;;23.50;99.90;;;;;;5091180;28;20388;-74
2023/06/11 12:14:16;;;;;;;13.93;6.80;;;23.60;99.90;;;;;;5078654;28;20491;-76
2023/06/11 12:17:20;;;;;;;14.25;6.82;;;23.70;99.90;;;;;;5091247;28;20035;-75
2023/06/11 12:20:24;;;;;;;14.63;7.57;;;23.70;99.90;;;;;;5090959;28;20051;-75
2023/06/11 12:23:28;;;;;;;10.48;6.70;;;23.70;99.90;;;;;;5090806;28;20047;-76
2023/06/11 12:26:33;;;;;;;11.57;7.43;;;23.70;99.90;;;;;;5090946;28;20396;-74
2023/06/11 12:29:37;;;;;;;9.13;6.95;;;23.60;99.90;;;;;;5090949;28;20051;-75
2023/06/11 12:32:41;;;;;;;14.27;7.35;;;23.50;99.90;;;;;;5091330;28;20043;-75
2023/06/11 12:35:45;;;;;;;14.20;6.78;;;23.50;99.90;;;;;;5091102;28;20039;-73
2023/06/11 12:38:48;;;;;;;13.40;8.07;;;23.50;99.90;;;;;;5090649;28;20035;-74
2023/06/11 12:41:52;;;;;;;16.70;7.30;;;23.40;99.90;;;;;;5090965;28;20059;-75
2023/06/11 12:44:56;;;;;;;13.77;6.43;;;23.40;99.90;;;;;;5090715;28;20036;-75
2023/06/11 12:48:00;;;;;;;10.05;6.18;;;23.30;99.90;;;;;;5090602;28;20043;-76
2023/06/11 12:51:04;;;;;;;15.13;6.13;;;23.20;99.90;;;;;;5090706;28;20044;-74
2023/06/11 12:54:08;;;;;;;10.95;6.22;;;23.10;99.90;;;;;;5090982;28;20043;-75
2023/06/11 12:57:12;;;;;;;13.73;6.80;;;23.10;99.90;;;;;;5094940;28;20039;-75
2023/06/11 13:00:16;;;;;;;12.77;6.10;;;23.20;99.90;;;;;;5094472;28;20052;-76
2023/06/11 13:03:20;;;;;;;9.27;4.65;;;23.00;99.90;;;;;;5082038;28;20395;-74
2023/06/11 13:06:24;;;;;;;8.30;4.43;;;22.90;99.90;;;;;;5094452;28;20051;-73
2023/06/11 13:09:28;;;;;;;7.65;4.40;;;22.90;99.90;;;;;;5093926;28;20051;-75
2023/06/11 13:12:34;;;;;;;6.97;5.00;;;23.00;99.90;;;;;;5094128;28;20043;-74
2023/06/11 13:15:37;;;;;;;11.18;5.40;;;23.10;99.90;;;;;;5081489;28;20043;-76
2023/06/11 13:18:42;;;;;;;10.25;5.45;;;23.10;99.90;;;;;;5094269;28;20530;-75
2023/06/11 13:21:46;;;;;;;11.93;5.47;;;23.10;99.90;;;;;;5093904;28;20058;-74
2023/06/11 13:24:49;;;;;;;9.68;4.85;;;23.00;99.90;;;;;;5093998;28;20039;-76
2023/06/11 13:27:53;;;;;;;8.18;4.97;;;22.90;99.90;;;;;;5093831;28;20399;-75
2023/06/11 13:30:58;;;;;;;8.15;5.15;;;23.00;99.90;;;;;;5093978;28;20039;-76
2023/06/11 13:34:02;;;;;;;12.52;5.47;;;23.00;99.90;;;;;;5093364;28;20055;-75
2023/06/11 13:37:06;;;;;;;14.00;5.72;;;23.10;99.90;;;;;;5093708;28;20503;-75
2023/06/11 13:40:10;;;;;;;9.95;4.90;;;23.10;99.90;;;;;;5093850;28;20055;-77
2023/06/11 13:43:14;;;;;;;7.13;4.72;;;23.20;99.90;;;;;;5093593;28;20039;-76
2023/06/11 13:46:18;;;;;;;8.25;4.45;;;23.20;99.90;;;;;;5093488;28;20051;-75
2023/06/11 13:49:22;;;;;;;7.47;4.43;;;23.30;99.90;;;;;;5093462;28;20043;-77
2023/06/11 13:52:26;;;;;;;8.90;4.95;;;23.30;99.90;;;;;;5080939;28;20047;-75
2023/06/11 13:55:30;;;;;;;10.23;5.05;;;23.40;99.90;;;;;;5093173;28;20058;-76
2023/06/11 13:58:34;;;;;;;11.50;6.53;;;23.40;99.90;;;;;;5093348;28;20059;-75
2023/06/11 14:01:39;;;;;;;10.60;7.05;;;23.30;99.90;;;;;;5093308;28;20463;-75
2023/06/11 14:04:43;;;;;;;15.85;8.20;;;23.30;99.90;;;;;;5092860;28;20043;-74
2023/06/11 14:07:48;;;;;;;14.30;7.65;;;23.30;99.90;;;;;;5093159;28;20079;-75
2023/06/11 14:10:52;;;;;;;13.40;7.53;;;23.20;99.90;;;;;;5092922;28;20043;-80
2023/06/11 14:13:58;;;;;;;15.88;7.68;;;23.30;99.90;;;;;;5092670;28;20294;-75
2023/06/11 14:17:04;;;;;;;12.18;7.10;;;23.30;99.90;;;;;;5093143;28;20047;-75
2023/06/11 14:20:09;;;;;;;13.90;7.05;;;23.30;99.90;;;;;;5092719;28;20047;-75
2023/06/11 14:23:13;;;;;;;13.55;6.72;;;23.20;99.90;;;;;;5092820;28;20055;-76
2023/06/11 14:26:17;;;;;;;11.48;6.40;;;23.20;99.90;;;;;;5092901;28;20153;-76
2023/06/11 14:29:21;;;;;;;12.45;6.53;;;23.20;99.90;;;;;;5092597;28;20043;-76
2023/06/11 14:32:28;;;;;;;10.23;6.20;;;23.20;99.90;;;;;;5092807;28;20051;-76
2023/06/11 14:35:32;;;;;;;12.82;7.05;;;23.20;99.90;;;;;;5092481;28;20059;-76
2023/06/11 14:38:36;;;;;;;11.55;6.43;;;23.30;99.90;;;;;;5092722;28;20043;-75
2023/06/11 14:41:40;;;;;;;11.48;6.50;;;23.40;99.90;;;;;;5092703;28;20514;-76
2023/06/11 14:44:44;;;;;;;10.80;6.47;;;23.30;99.90;;;;;;5092454;28;20063;-75
2023/06/11 14:47:49;;;;;;;9.50;6.20;;;23.30;99.90;;;;;;5093011;28;20403;-77
2023/06/11 14:50:54;;;;;;;11.95;6.72;;;23.30;99.90;;;;;;5093053;28;20499;-78
2023/06/11 14:53:58;;;;;;;11.60;6.30;;;23.50;99.90;;;;;;5093044;28;20046;-78
2023/06/11 14:57:18;;;;;;;10.73;6.50;;;23.40;99.90;;;;;;5092072;28;20039;-75
2023/06/11 15:00:22;;;;;;;10.55;6.28;;;23.50;99.90;;;;;;5092514;28;20400;-77
2023/06/11 15:03:26;;;;;;;11.18;5.38;;;23.60;99.90;;;;;;5092300;28;20047;-76
2023/06/11 15:06:31;;;;;;;13.50;6.05;;;23.70;99.90;;;;;;5092059;28;20039;-78
2023/06/11 15:09:36;;;;;;;11.40;6.35;;;23.70;99.90;;;;;;5080091;28;20055;-77
2023/06/11 15:12:40;;;;;;;9.75;6.15;;;23.70;99.90;;;;;;5092435;28;20059;-77
2023/06/11 15:15:44;;;;;;;9.25;5.40;;;23.80;99.90;;;;;;5092063;28;20388;-77
2023/06/11 15:18:48;;;;;;;10.80;5.60;;;23.80;99.90;;;;;;5091457;28;20518;-78
2023/06/11 15:21:52;;;;;;;12.32;6.13;;;23.90;99.90;;;;;;5079332;28;20541;-78
2023/06/11 15:24:56;;;;;;;10.10;5.43;;;23.90;99.90;;;;;;5091811;28;20051;-74
2023/06/11 15:28:00;;;;;;;10.48;5.38;;;23.80;99.90;;;;;;5091849;28;20511;-75
2023/06/11 15:31:04;;;;;;;13.82;5.93;;;23.80;99.90;;;;;;5091625;28;20081;-75
2023/06/11 15:34:08;;;;;;;10.65;6.03;;;23.80;99.90;;;;;;5091582;28;20055;-76
2023/06/11 15:37:13;;;;;;;5.88;4.75;;;23.90;99.90;;;;;;5091291;28;20043;-74
2023/06/11 15:40:16;;;;;;;13.40;5.50;;;23.90;99.90;;;;;;5091887;28;20412;-78
2023/06/11 15:43:20;;;;;;;9.60;4.93;;;24.00;99.90;;;;;;5091545;28;20059;-73
2023/06/11 15:46:24;;;;;;;10.50;4.80;;;24.00;99.90;;;;;;5091134;28;20039;-74